Murmansk, Russia

5:30 AM MSK on June 28, 2017 (GMT +0300)
Zagorodnaya ulitsa | | Change Station

Elev 314 ft 68.98 °N, 33.09 °E | Updated 2 minutes ago

Overcast
Overcast
42.4 °F
Feels Like 42 °F
N
0.6
Wind Variable Wind from North
Gusts 1.9 mph

Today
High -- | Low -- °F
--% Chance of Precip.
Yesterday
High -- | Low -- °F
Precip. -- in
Pressure 29.56 in
Visibility 3.1 miles
Clouds Overcast 200 ft
Windchill 42 °F
Dew Point 40 °F
Humidity 92%
Rainfall Not available.
Snow Depth Not available.
3:00 AM 3:00 AM
Waxing Crescent, 21% visible
METAR ULMM 280200Z 36004MPS 5000 BR OVC002 05/04 Q1001 R31/190060 NOSIG RMK QBB080 OBST OBSC QFE744
Pressure 29.56 in
Visibility 3.1 miles
Clouds Overcast 200 ft
Windchill 42 °F
Dew Point 40 °F
Humidity 92%
Rainfall Not available.
Snow Depth Not available.
3:00 AM 3:00 AM
Waxing Crescent, 21% visible
METAR ULMM 280200Z 36004MPS 5000 BR OVC002 05/04 Q1001 R31/190060 NOSIG RMK QBB080 OBST OBSC QFE744

Get Severe Weather Alerts

Thanks for signing up!

Be on the lookout for a verification email in your inbox.

You'll start receiving the daily forecast at 6 AM.

×

10-Day Weather Forecast

×

Almanac

Astronomy

Jun. 28, 2017 Rise Set
Actual Time
Civil Twilight
Nautical Twilight
Astronomical Twilight
Moon
Length of Visible Light
Length of Day
Tomorrow will be .
, % of the Moon is Illuminated

Today's Extremes

Country Highs Country Lows

Community

WunderPhotos

Category 6

Welcome to Category 6. This is the collective home for Weather Underground's featured writeups by Dr. Jeff Masters (right), Bob Henson (left), Chris Burt, and other regular contributors.

Nearby

Air Quality

  Air Quality AQ Index Pollutant
Not available.

Snow Depth

Station Depth Elevation

Earthquake Activity

City Distance Mag. Time & Date
Minimum magnitude displayed is 2.5.

Coastal Water Temperatures

Place Temperature

Stations

Nearby Weather Stations

Station Location Temp. Windchill Dew Point Humidity Wind Precip. Elev Updated Type